CST,Max TemperatureF,Mean TemperatureF,Min TemperatureF,Max Dew PointF,MeanDew PointF,Min DewpointF,Max Humidity, Mean Humidity, Min Humidity, Max Sea Level PressureIn, Mean Sea Level PressureIn, Min Sea Level PressureIn, Max VisibilityMiles, Mean VisibilityMiles, Min VisibilityMiles, Max Wind SpeedMPH, Mean Wind SpeedMPH, Max Gust SpeedMPH,PrecipitationIn, CloudCover, Events, WindDirDegrees
2012-2-1,62,44,26,21,15,9,64,35,13,30.18,30.14,30.09,10,10,10,25,7,30,0.00,0,,319
2012-2-2,59,44,30,48,34,9,88,65,40,30.16,29.99,29.81,10,10,7,29,12,36,0.00,2,,146
2012-2-3,44,38,33,39,34,28,100,82,66,30.19,30.00,29.85,10,9,0,22,13,26,0.00,7,Fog-Snow-Thunderstorm,354
2012-2-4,44,35,26,28,25,19,86,70,49,30.40,30.31,30.23,10,10,10,29,15,38,0.00,2,,360
2012-2-5,44,30,15,25,16,10,93,64,27,30.44,30.39,30.32,10,10,10,14,7,18,0.00,0,,7
2012-2-6,51,35,19,21,18,9,74,52,28,30.31,30.20,30.06,10,10,10,20,6,25,0.00,2,,201
2012-2-7,35,30,23,30,25,18,93,77,64,30.41,30.27,30.10,10,10,4,26,14,36,0.00,7,Snow,5
2012-2-8,51,30,8,27,16,5,93,64,32,30.43,30.32,30.15,10,10,10,23,7,29,0.00,0,,234
2012-2-9,41,37,33,32,30,28,87,76,61,30.16,30.09,30.05,10,10,10,18,12,25,0.00,7,Rain,339
2012-2-10,53,38,23,32,24,18,100,64,26,30.28,30.21,30.15,10,9,0,17,7,23,0.00,1,Fog,279
2012-2-11,33,25,17,25,15,5,93,65,32,30.49,30.40,30.27,10,8,2,20,12,25,0.00,7,,98
2012-2-12,23,21,19,21,16,10,93,80,68,30.43,30.22,29.97,10,8,1,22,13,23,0.00,7,Snow,180
2012-2-13,60,42,24,39,28,23,93,66,23,29.89,29.76,29.70,10,8,1,29,21,34,0.00,3,Snow,253
2012-2-14,64,45,26,32,27,23,86,56,21,29.86,29.81,29.75,10,10,10,23,9,29,0.00,1,,238
2012-2-15,51,40,30,32,28,21,87,61,46,30.11,29.90,29.80,10,10,10,31,16,38,0.00,0,,288
2012-2-16,51,37,23,30,26,19,100,75,41,30.31,30.21,30.13,10,8,0,13,5,,0.00,3,Fog-Snow,63
2012-2-17,50,41,32,37,33,28,87,77,58,30.14,30.08,29.99,10,10,10,12,4,,0.00,7,,190
2012-2-18,41,36,32,37,33,30,100,91,81,30.10,30.05,29.99,10,8,2,22,8,25,0.04,8,Rain-Snow,16
2012-2-19,53,43,33,41,36,32,100,83,51,30.07,29.92,29.77,10,8,1,29,16,37,0.00,5,,201
2012-2-20,51,43,35,37,20,0,87,48,13,29.95,29.84,29.78,10,10,5,39,20,52,0.00,0,,266
2012-2-21,64,45,26,12,10,7,55,27,11,30.07,29.98,29.86,10,10,10,33,17,46,0.00,0,,262
2012-2-22,77,55,33,21,18,14,56,29,11,29.87,29.79,29.60,10,10,10,24,13,31,0.00,0,,269
2012-2-23,62,53,42,30,25,9,46,35,22,29.85,29.61,29.50,10,10,10,32,27,44,0.00,0,,316
2012-2-24,50,34,19,19,11,3,80,41,15,30.32,30.23,30.10,10,10,10,17,9,,0.00,1,,310
2012-2-25,62,43,24,19,13,10,59,33,14,30.29,30.12,29.89,10,10,7,36,15,45,0.00,0,,209
2012-2-26,71,50,30,25,20,9,75,34,10,30.13,29.94,29.88,10,10,10,23,14,30,0.00,0,,250
2012-2-27,44,42,41,37,18,5,76,40,21,30.29,30.21,30.13,10,10,7,23,17,30,0.00,7,,91
2012-2-28,73,58,44,52,37,12,100,61,10,30.05,29.86,29.71,10,7,0,41,21,54,0.00,6,Fog-Rain,204
2012-2-29,68,49,30,19,12,5,56,27,8,30.08,29.98,29.89,10,10,7,28,14,37,0.00,0,,235